createdAt,value
2019-01-16T00:02:58.117Z,53.50
2019-01-16T00:05:29.866Z,53.50
2019-01-16T00:08:02.553Z,53.50
2019-01-16T00:12:36.416Z,53.60
2019-01-16T00:15:09.448Z,53.50
2019-01-16T00:18:17.043Z,53.50
2019-01-16T00:20:45.897Z,53.50
2019-01-16T00:23:18.536Z,53.50
2019-01-16T00:25:51.390Z,53.50
2019-01-16T00:28:23.110Z,53.50
2019-01-16T00:30:56.012Z,53.50
2019-01-16T00:33:27.752Z,53.50
2019-01-16T00:36:07.425Z,53.60
2019-01-16T00:38:41.046Z,53.70
2019-01-16T00:41:13.949Z,53.60
2019-01-16T00:43:46.660Z,53.60
2019-01-16T00:46:19.164Z,53.60
2019-01-16T00:48:53.845Z,53.60
2019-01-16T00:51:31.384Z,53.60
2019-01-16T00:54:03.901Z,53.60
2019-01-16T00:56:36.440Z,53.60
2019-01-16T01:00:14.180Z,53.60
2019-01-16T01:02:47.800Z,53.70
2019-01-16T01:05:21.355Z,53.60
2019-01-16T01:07:54.037Z,53.60
2019-01-16T01:10:26.583Z,53.60
2019-01-16T01:12:59.153Z,53.70
2019-01-16T01:15:34.853Z,53.70
2019-01-16T01:18:08.367Z,53.70
2019-01-16T01:20:45.909Z,53.60
2019-01-16T01:23:20.520Z,53.60
2019-01-16T01:25:52.252Z,53.60
2019-01-16T01:29:27.916Z,53.70
2019-01-16T01:32:00.457Z,53.70
2019-01-16T01:34:35.009Z,53.80
2019-01-16T01:37:14.681Z,53.80
2019-01-16T01:39:50.324Z,53.70
2019-01-16T01:42:23.989Z,53.70
2019-01-16T01:45:00.741Z,53.70
2019-01-16T01:47:32.460Z,53.70
2019-01-16T01:50:04.969Z,53.70
2019-01-16T01:52:37.764Z,53.70
2019-01-16T01:55:10.663Z,53.70
2019-01-16T01:57:45.396Z,53.80
2019-01-16T02:00:17.136Z,53.70
2019-01-16T02:02:51.837Z,53.80
2019-01-16T02:05:27.330Z,53.80
2019-01-16T02:08:01.937Z,53.80
2019-01-16T02:10:48.597Z,53.70
2019-01-16T02:13:21.328Z,53.80
2019-01-16T02:15:53.993Z,53.80
2019-01-16T02:18:27.565Z,53.80
2019-01-16T02:21:01.074Z,53.80
2019-01-16T02:23:33.937Z,53.80
2019-01-16T02:26:09.648Z,53.80
2019-01-16T02:28:42.317Z,53.80
2019-01-16T02:31:28.906Z,53.70
2019-01-16T02:34:01.766Z,53.70
2019-01-16T02:36:35.466Z,53.80
2019-01-16T02:39:12.373Z,53.80
2019-01-16T02:41:47.014Z,53.80
2019-01-16T02:44:19.924Z,53.80
2019-01-16T02:46:54.639Z,53.90
2019-01-16T02:49:27.194Z,53.80
2019-01-16T02:52:02.704Z,53.90
2019-01-16T02:54:38.372Z,53.90
2019-01-16T02:57:10.078Z,53.90
2019-01-16T02:59:41.832Z,54.00
2019-01-16T03:02:14.628Z,53.90
2019-01-16T03:05:03.129Z,53.90
2019-01-16T03:07:35.900Z,53.90
2019-01-16T03:10:09.600Z,53.90
2019-01-16T03:12:41.328Z,53.90
2019-01-16T03:15:14.188Z,54.00
2019-01-16T03:17:47.822Z,54.00
2019-01-16T03:20:21.344Z,54.00
2019-01-16T03:23:10.899Z,54.60
2019-01-16T03:26:00.567Z,54.00
2019-01-16T03:28:35.283Z,54.00
2019-01-16T03:31:07.095Z,54.00
2019-01-16T03:33:38.827Z,54.00
2019-01-16T03:36:12.330Z,54.00
2019-01-16T03:40:45.976Z,54.00
2019-01-16T03:43:23.617Z,54.00
2019-01-16T03:46:09.246Z,54.10
2019-01-16T03:48:46.908Z,54.10
2019-01-16T03:51:21.483Z,54.70
2019-01-16T03:53:54.982Z,54.00
2019-01-16T03:56:30.524Z,54.10
2019-01-16T03:59:02.258Z,54.10
2019-01-16T04:01:35.177Z,54.20
2019-01-16T04:04:14.912Z,54.20
2019-01-16T04:07:01.543Z,54.20
2019-01-16T04:09:34.353Z,54.10
2019-01-16T04:14:10.162Z,54.20
2019-01-16T04:16:43.841Z,54.50
2019-01-16T04:19:21.907Z,54.20
2019-01-16T04:21:51.323Z,54.20
2019-01-16T04:25:27.055Z,54.20
2019-01-16T04:27:59.802Z,54.20
2019-01-16T04:30:32.662Z,54.30
2019-01-16T04:33:04.424Z,54.20
2019-01-16T04:35:37.207Z,54.30
2019-01-16T04:38:08.955Z,54.30
2019-01-16T04:41:14.649Z,54.30
2019-01-16T04:43:52.142Z,54.20
2019-01-16T04:46:26.688Z,54.20
2019-01-16T04:48:59.404Z,54.90
2019-01-16T04:53:33.219Z,54.20
2019-01-16T04:56:05.849Z,54.20
2019-01-16T04:58:38.564Z,54.20
2019-01-16T05:01:10.264Z,54.20
2019-01-16T05:03:43.752Z,54.10
2019-01-16T05:06:18.301Z,54.20
2019-01-16T05:08:50.958Z,54.20
2019-01-16T05:11:23.890Z,54.20
2019-01-16T05:13:55.632Z,54.30
2019-01-16T05:16:30.288Z,54.30
2019-01-16T05:21:06.201Z,54.30
2019-01-16T05:23:40.887Z,54.10
2019-01-16T05:28:16.693Z,54.20
2019-01-16T05:30:48.407Z,54.20
2019-01-16T05:33:23.111Z,54.30
2019-01-16T05:35:54.857Z,54.30
2019-01-16T05:38:29.405Z,54.30
2019-01-16T05:41:02.271Z,54.30
2019-01-16T05:43:35.954Z,54.30
2019-01-16T05:46:07.676Z,54.30
2019-01-16T05:48:40.480Z,54.30
2019-01-16T05:51:15.193Z,54.20
2019-01-16T05:53:48.036Z,54.20
2019-01-16T05:56:28.737Z,54.20
2019-01-16T05:59:00.453Z,54.10
2019-01-16T06:02:04.156Z,54.20
2019-01-16T06:04:40.854Z,54.30
2019-01-16T06:07:12.588Z,54.50
2019-01-16T06:09:45.344Z,54.30
2019-01-16T06:12:33.017Z,54.30
2019-01-16T06:15:05.536Z,54.20
2019-01-16T06:17:38.204Z,54.30
2019-01-16T06:20:13.162Z,54.30
2019-01-16T06:22:47.814Z,54.20
2019-01-16T06:25:25.329Z,54.10
2019-01-16T06:30:00.034Z,54.10
2019-01-16T06:32:33.684Z,54.20
2019-01-16T06:35:17.314Z,54.20
2019-01-16T06:37:49.036Z,54.10
2019-01-16T06:40:21.851Z,54.20
2019-01-16T06:42:55.515Z,54.10
2019-01-16T06:45:27.239Z,54.20
2019-01-16T06:50:03.047Z,54.10
2019-01-16T06:52:35.725Z,54.10
2019-01-16T06:55:09.532Z,54.00
2019-01-16T06:59:43.346Z,54.00
2019-01-16T07:02:16.023Z,54.00
2019-01-16T07:04:50.731Z,54.00
2019-01-16T07:07:22.484Z,54.00
2019-01-16T07:09:56.052Z,54.00
2019-01-16T07:12:28.568Z,54.00
2019-01-16T07:15:01.356Z,54.00
2019-01-16T07:17:36.054Z,54.00
2019-01-16T07:20:40.356Z,54.00
2019-01-16T07:23:12.125Z,54.00
2019-01-16T07:25:46.702Z,54.00
2019-01-16T07:28:18.436Z,54.00
2019-01-16T07:30:53.999Z,54.00
2019-01-16T07:33:30.662Z,54.00
2019-01-16T07:38:10.587Z,54.00
2019-01-16T07:40:43.459Z,54.00
2019-01-16T07:43:17.077Z,54.00
2019-01-16T07:45:52.640Z,54.00
2019-01-16T07:48:26.369Z,54.00
2019-01-16T07:50:58.977Z,54.00
2019-01-16T07:53:31.638Z,54.00
2019-01-16T07:56:04.276Z,54.00
2019-01-16T07:58:40.941Z,53.90
2019-01-16T08:01:15.608Z,54.00
2019-01-16T08:03:51.277Z,54.00
2019-01-16T08:07:25.896Z,54.00
2019-01-16T08:09:58.789Z,54.00
2019-01-16T08:12:30.517Z,54.00
2019-01-16T08:15:06.060Z,54.00
2019-01-16T08:17:38.788Z,54.00
2019-01-16T08:20:12.736Z,53.90
2019-01-16T08:22:45.320Z,54.00
2019-01-16T08:25:17.038Z,54.00
2019-01-16T08:27:53.720Z,54.00
2019-01-16T08:30:30.292Z,54.00
2019-01-16T08:33:06.929Z,54.00
2019-01-16T08:35:41.636Z,54.00
2019-01-16T08:38:16.304Z,54.00
2019-01-16T08:40:52.909Z,54.00
2019-01-16T08:43:27.533Z,53.90
2019-01-16T08:46:00.064Z,54.00
2019-01-16T08:50:36.861Z,53.90
2019-01-16T08:53:09.737Z,53.90
2019-01-16T08:55:47.377Z,53.90
2019-01-16T08:59:18.012Z,53.90
2019-01-16T09:02:00.712Z,53.90
2019-01-16T09:04:35.384Z,53.90
2019-01-16T09:07:08.325Z,53.90
2019-01-16T09:09:56.967Z,54.50
2019-01-16T09:12:29.572Z,53.90
2019-01-16T09:15:35.020Z,53.90
2019-01-16T09:18:07.901Z,53.90
2019-01-16T09:20:41.729Z,53.90
2019-01-16T09:23:14.561Z,53.90
2019-01-16T09:25:47.238Z,53.90
2019-01-16T09:28:20.019Z,53.90
2019-01-16T09:30:53.549Z,53.80
2019-01-16T09:35:31.242Z,53.90
2019-01-16T09:38:04.099Z,53.90
2019-01-16T09:40:36.764Z,53.90
2019-01-16T09:43:14.427Z,53.90
2019-01-16T09:47:49.181Z,53.90
2019-01-16T09:50:23.869Z,53.90
2019-01-16T09:52:56.629Z,53.90
2019-01-16T09:55:36.367Z,53.90
2019-01-16T09:58:09.072Z,54.00
2019-01-16T10:00:41.945Z,54.00
2019-01-16T10:04:16.703Z,53.90
2019-01-16T10:06:51.405Z,54.00
2019-01-16T10:09:24.122Z,54.00
2019-01-16T10:12:01.601Z,54.00
2019-01-16T10:14:33.340Z,54.00
2019-01-16T10:17:06.140Z,54.00
2019-01-16T10:19:37.879Z,54.00
2019-01-16T10:22:11.585Z,54.00
2019-01-16T10:24:50.250Z,54.00
2019-01-16T10:27:24.932Z,54.00
2019-01-16T10:29:59.588Z,54.00
2019-01-16T10:32:35.093Z,54.00
2019-01-16T10:35:08.033Z,54.00
2019-01-16T10:37:42.689Z,54.00
2019-01-16T10:40:16.348Z,54.00
2019-01-16T10:42:51.006Z,54.00
2019-01-16T10:47:27.757Z,54.00
2019-01-16T10:50:02.444Z,54.00
2019-01-16T10:52:34.167Z,54.00
2019-01-16T10:55:11.645Z,54.00
2019-01-16T10:59:45.363Z,54.00
2019-01-16T11:02:18.231Z,54.00
2019-01-16T11:06:54.083Z,54.00
2019-01-16T11:09:25.818Z,54.00
2019-01-16T11:12:01.345Z,54.00
2019-01-16T11:14:34.090Z,54.00
2019-01-16T11:17:06.964Z,54.00
2019-01-16T11:19:42.618Z,54.00
2019-01-16T11:24:16.504Z,54.00
2019-01-16T11:27:20.137Z,54.00
2019-01-16T11:29:51.855Z,54.00
2019-01-16T11:32:26.533Z,54.00
2019-01-16T11:35:01.167Z,54.00
2019-01-16T11:37:34.716Z,54.00
2019-01-16T11:42:12.372Z,53.90
2019-01-16T11:44:45.231Z,53.90
2019-01-16T11:47:20.897Z,54.00
2019-01-16T11:49:52.598Z,54.00
2019-01-16T11:52:28.093Z,54.00
2019-01-16T11:55:01.076Z,54.00
2019-01-16T11:57:33.744Z,53.90
2019-01-16T12:00:08.328Z,53.90
2019-01-16T12:02:41.854Z,54.00
2019-01-16T12:05:16.273Z,54.00
2019-01-16T12:07:49.951Z,53.90
2019-01-16T12:10:22.670Z,54.00
2019-01-16T12:12:56.153Z,54.00
2019-01-16T12:16:01.896Z,53.90
2019-01-16T12:18:34.484Z,53.90
2019-01-16T12:21:06.209Z,53.90
2019-01-16T12:23:38.727Z,53.90
2019-01-16T12:26:12.261Z,53.90
2019-01-16T12:28:44.957Z,53.90
2019-01-16T12:31:19.460Z,53.90
2019-01-16T12:33:52.206Z,53.90
2019-01-16T12:36:24.873Z,53.90
2019-01-16T12:39:01.528Z,53.90
2019-01-16T12:41:38.222Z,53.90
2019-01-16T12:44:13.809Z,53.90
2019-01-16T12:46:47.284Z,53.90
2019-01-16T12:49:18.985Z,53.90
2019-01-16T12:51:50.708Z,53.90
2019-01-16T12:54:22.449Z,53.80
2019-01-16T12:56:56.921Z,53.90
2019-01-16T12:59:29.784Z,53.90
2019-01-16T13:02:18.449Z,53.90
2019-01-16T13:04:51.281Z,53.90
2019-01-16T13:07:29.922Z,53.90
2019-01-16T13:10:02.785Z,53.80
2019-01-16T13:12:43.437Z,53.90
2019-01-16T13:15:16.200Z,53.90
2019-01-16T13:18:19.916Z,53.90
2019-01-16T13:20:54.524Z,53.90
2019-01-16T13:23:27.408Z,53.80
2019-01-16T13:26:15.154Z,53.80
2019-01-16T13:28:47.637Z,53.80
2019-01-16T13:31:19.378Z,53.80
2019-01-16T13:33:55.032Z,53.70
2019-01-16T13:36:26.769Z,53.80
2019-01-16T13:38:59.523Z,53.70
2019-01-16T13:41:37.211Z,53.70
2019-01-16T13:46:17.071Z,53.80
2019-01-16T13:48:52.814Z,53.80
2019-01-16T13:51:24.349Z,53.80
2019-01-16T13:53:59.864Z,53.80
2019-01-16T13:56:34.476Z,53.80
2019-01-16T13:59:07.281Z,53.70
2019-01-16T14:01:40.965Z,53.70
2019-01-16T14:04:13.620Z,53.70
2019-01-16T14:06:46.257Z,53.80
2019-01-16T14:09:19.904Z,53.80
2019-01-16T14:11:52.781Z,53.70
2019-01-16T14:16:26.764Z,53.70
2019-01-16T14:21:01.588Z,53.70
2019-01-16T14:23:36.301Z,53.70
2019-01-16T14:26:13.848Z,53.70
2019-01-16T14:28:46.749Z,53.70
2019-01-16T14:31:27.215Z,53.70
2019-01-16T14:34:01.925Z,54.30
2019-01-16T14:36:38.521Z,53.70
2019-01-16T14:39:13.057Z,53.80
2019-01-16T14:41:47.605Z,53.70
2019-01-16T14:45:22.237Z,53.80
2019-01-16T14:47:57.807Z,53.80
2019-01-16T14:50:32.436Z,53.70
2019-01-16T14:53:06.044Z,53.70
2019-01-16T14:55:37.799Z,53.70
2019-01-16T14:58:09.516Z,53.70
2019-01-16T15:00:42.439Z,53.70
2019-01-16T15:03:15.333Z,53.70
2019-01-16T15:05:48.184Z,53.70
2019-01-16T15:08:21.118Z,53.70
2019-01-16T15:10:56.769Z,53.70
2019-01-16T15:13:28.540Z,53.70
2019-01-16T15:16:09.125Z,53.70
2019-01-16T15:19:13.724Z,53.70
2019-01-16T15:21:46.621Z,53.70
2019-01-16T15:24:18.329Z,53.70
2019-01-16T15:26:51.197Z,53.70
2019-01-16T15:29:26.836Z,53.70
2019-01-16T15:31:59.710Z,53.70
2019-01-16T15:34:32.637Z,53.70
2019-01-16T15:38:07.321Z,53.70
2019-01-16T15:40:39.066Z,53.70
2019-01-16T15:43:13.572Z,53.70
2019-01-16T15:46:16.280Z,53.70
2019-01-16T15:48:49.033Z,53.70
2019-01-16T15:51:30.726Z,53.70
2019-01-16T15:54:05.276Z,53.70
2019-01-16T15:56:39.964Z,53.70
2019-01-16T15:59:13.545Z,53.70
2019-01-16T16:01:46.396Z,53.70
2019-01-16T16:04:28.028Z,53.60
2019-01-16T16:07:00.949Z,53.70
2019-01-16T16:09:33.608Z,53.70
2019-01-16T16:12:06.276Z,53.60
2019-01-16T16:15:14.916Z,53.70
2019-01-16T16:17:51.601Z,53.60
2019-01-16T16:20:24.105Z,53.60
2019-01-16T16:22:57.986Z,53.70
2019-01-16T16:25:29.710Z,53.60
2019-01-16T16:28:02.625Z,53.60
2019-01-16T16:30:34.374Z,53.60
2019-01-16T16:33:16.973Z,53.60
2019-01-16T16:35:49.504Z,53.60
2019-01-16T16:38:22.437Z,53.60
2019-01-16T16:40:55.369Z,53.70
2019-01-16T16:43:28.224Z,53.60
2019-01-16T16:46:30.966Z,53.60
2019-01-16T16:49:06.564Z,53.60
2019-01-16T16:51:38.285Z,53.60
2019-01-16T16:54:22.804Z,53.50
2019-01-16T16:56:55.409Z,53.50
2019-01-16T16:59:28.892Z,53.50
2019-01-16T17:02:02.460Z,53.50
2019-01-16T17:04:37.133Z,53.50
2019-01-16T17:07:09.922Z,53.50
2019-01-16T17:09:49.548Z,53.40
2019-01-16T17:12:26.303Z,53.50
2019-01-16T17:15:05.788Z,53.50
2019-01-16T17:17:50.501Z,53.40
2019-01-16T17:20:23.183Z,53.40
2019-01-16T17:22:58.671Z,53.40
2019-01-16T17:25:30.400Z,53.50
2019-01-16T17:28:05.077Z,53.40
2019-01-16T17:30:37.896Z,53.40
2019-01-16T17:33:10.520Z,53.40
2019-01-16T17:35:43.394Z,53.40
2019-01-16T17:38:21.085Z,53.30
2019-01-16T17:40:53.848Z,53.30
2019-01-16T17:43:26.742Z,53.30
2019-01-16T17:46:04.397Z,53.30
2019-01-16T17:48:45.037Z,53.30
2019-01-16T17:51:18.555Z,53.40
2019-01-16T17:53:53.106Z,53.30
2019-01-16T17:56:27.635Z,53.30
2019-01-16T17:59:00.576Z,53.30
2019-01-16T18:01:32.319Z,53.30
2019-01-16T18:04:04.037Z,53.30
2019-01-16T18:08:38.921Z,53.30
2019-01-16T18:11:12.386Z,53.30
2019-01-16T18:15:46.269Z,53.30
2019-01-16T18:18:19.932Z,53.20
2019-01-16T18:21:12.459Z,53.20
2019-01-16T18:23:47.133Z,53.20
2019-01-16T18:26:18.860Z,53.20
2019-01-16T18:28:50.584Z,53.20
2019-01-16T18:31:25.223Z,53.20
2019-01-16T18:34:13.912Z,53.10
2019-01-16T18:36:46.793Z,53.20
2019-01-16T18:39:20.500Z,53.10
2019-01-16T18:43:58.230Z,53.10
2019-01-16T18:46:30.924Z,53.10
2019-01-16T18:49:03.449Z,53.00
2019-01-16T18:51:36.253Z,53.00
2019-01-16T18:54:09.949Z,53.00
2019-01-16T18:58:43.850Z,53.00
2019-01-16T19:01:15.609Z,52.90
2019-01-16T19:03:48.286Z,52.90
2019-01-16T19:06:21.002Z,53.00
2019-01-16T19:08:52.733Z,52.80
2019-01-16T19:11:24.483Z,52.80
2019-01-16T19:13:58.970Z,52.80
2019-01-16T19:16:31.508Z,52.90
2019-01-16T19:19:07.066Z,52.90
2019-01-16T19:21:39.596Z,52.90
2019-01-16T19:24:13.179Z,52.70
2019-01-16T19:26:49.717Z,52.70
2019-01-16T19:29:21.460Z,52.70
2019-01-16T19:31:54.344Z,52.70
2019-01-16T19:34:30.997Z,52.70
2019-01-16T19:37:02.716Z,52.70
2019-01-16T19:39:35.497Z,52.60
2019-01-16T19:42:11.096Z,52.70
2019-01-16T19:44:42.817Z,52.60
2019-01-16T19:47:15.728Z,52.70
2019-01-16T19:49:48.377Z,52.60
2019-01-16T19:52:23.053Z,52.60
2019-01-16T19:54:56.623Z,52.60
2019-01-16T19:57:28.337Z,52.60
2019-01-16T20:02:05.120Z,52.60
2019-01-16T20:04:38.805Z,52.50
2019-01-16T20:07:14.363Z,52.60
2019-01-16T20:09:46.117Z,52.50
2019-01-16T20:12:19.760Z,52.60
2019-01-16T20:14:56.432Z,52.50
2019-01-16T20:19:36.181Z,52.50
2019-01-16T20:22:09.009Z,52.50
2019-01-16T20:24:46.690Z,52.40
2019-01-16T20:27:34.375Z,52.50
2019-01-16T20:30:07.164Z,52.40
2019-01-16T20:32:40.922Z,52.40
2019-01-16T20:35:28.596Z,52.40
2019-01-16T20:40:02.369Z,52.30
2019-01-16T20:42:38.055Z,52.40
2019-01-16T20:45:12.860Z,52.30
2019-01-16T20:47:48.433Z,52.30
2019-01-16T20:51:26.072Z,52.30
2019-01-16T20:54:02.708Z,52.30
2019-01-16T20:56:37.339Z,52.30
2019-01-16T20:59:14.116Z,52.30
2019-01-16T21:01:48.731Z,52.20
2019-01-16T21:04:21.601Z,52.20
2019-01-16T21:06:56.289Z,52.20
2019-01-16T21:09:28.856Z,52.10
2019-01-16T21:12:01.756Z,52.10
2019-01-16T21:14:33.497Z,52.20
2019-01-16T21:17:07.144Z,52.20
2019-01-16T21:21:43.028Z,52.10
2019-01-16T21:24:17.709Z,52.10
2019-01-16T21:27:04.433Z,52.10
2019-01-16T21:29:39.981Z,52.00
2019-01-16T21:32:17.669Z,52.00
2019-01-16T21:34:52.386Z,52.10
2019-01-16T21:37:26.981Z,52.00
2019-01-16T21:42:00.661Z,52.10
2019-01-16T21:44:33.548Z,52.00
2019-01-16T21:47:07.272Z,52.00
2019-01-16T21:49:42.965Z,52.70
2019-01-16T21:52:17.476Z,52.10
2019-01-16T21:54:49.196Z,52.00
2019-01-16T21:57:36.853Z,52.00
2019-01-16T22:02:15.467Z,52.00
2019-01-16T22:04:48.382Z,52.00
2019-01-16T22:07:53.093Z,51.90
2019-01-16T22:10:30.760Z,51.90
2019-01-16T22:13:03.410Z,51.90
2019-01-16T22:15:43.053Z,52.00
2019-01-16T22:18:35.636Z,51.90
2019-01-16T22:21:08.248Z,51.90
2019-01-16T22:23:39.960Z,51.80
2019-01-16T22:26:12.605Z,51.90
2019-01-16T22:28:44.349Z,51.90
2019-01-16T22:31:16.875Z,51.80
2019-01-16T22:33:55.445Z,51.80
2019-01-16T22:36:30.008Z,51.80
2019-01-16T22:39:04.670Z,51.80
2019-01-16T22:41:40.186Z,51.80
2019-01-16T22:44:15.735Z,51.80
2019-01-16T22:46:49.345Z,51.70
2019-01-16T22:49:22.172Z,51.80
2019-01-16T22:51:55.836Z,51.80
2019-01-16T22:54:28.406Z,51.80
2019-01-16T22:57:00.117Z,51.80
2019-01-16T22:59:39.710Z,51.70
2019-01-16T23:02:21.339Z,51.80
2019-01-16T23:06:58.140Z,51.70
2019-01-16T23:09:32.641Z,51.80
2019-01-16T23:12:05.371Z,51.70
2019-01-16T23:14:38.008Z,51.70
2019-01-16T23:19:11.801Z,52.30
2019-01-16T23:21:45.420Z,51.70
2019-01-16T23:24:20.941Z,51.60
2019-01-16T23:26:56.491Z,51.70
2019-01-16T23:30:33.364Z,51.70
2019-01-16T23:33:05.077Z,51.60
2019-01-16T23:35:39.736Z,51.70
2019-01-16T23:38:12.411Z,51.70
2019-01-16T23:40:48.935Z,51.60
2019-01-16T23:43:22.612Z,51.60
2019-01-16T23:45:55.455Z,51.60
2019-01-16T23:48:27.185Z,51.60
2019-01-16T23:51:04.817Z,51.50
2019-01-16T23:53:40.515Z,51.60
2019-01-16T23:56:13.204Z,51.50
2019-01-16T23:58:53.684Z,51.50
